sensor_id;sensor_type;location;lat;lon;timestamp;pressure;altitude;pressure_sealevel;temperature;humidity
49611;BME280;35515;48.766;9.176;2023-02-21T00:00:22;98870.16;;;7.74;57.93
49611;BME280;35515;48.766;9.176;2023-02-21T00:03:06;98866.69;;;7.89;57.30
49611;BME280;35515;48.766;9.176;2023-02-21T00:05:50;98863.22;;;8.03;56.64
49611;BME280;35515;48.766;9.176;2023-02-21T00:08:35;98862.56;;;7.78;57.47
49611;BME280;35515;48.766;9.176;2023-02-21T00:11:19;98869.19;;;7.67;58.19
49611;BME280;35515;48.766;9.176;2023-02-21T00:14:03;98862.03;;;7.82;57.62
49611;BME280;35515;48.766;9.176;2023-02-21T00:16:47;98867.13;;;7.77;57.91
49611;BME280;35515;48.766;9.176;2023-02-21T00:19:31;98868.38;;;7.66;58.26
49611;BME280;35515;48.766;9.176;2023-02-21T00:22:15;98861.28;;;7.65;58.32
49611;BME280;35515;48.766;9.176;2023-02-21T00:25:00;98854.63;;;7.45;58.70
49611;BME280;35515;48.766;9.176;2023-02-21T00:27:44;98844.75;;;7.37;59.16
49611;BME280;35515;48.766;9.176;2023-02-21T00:30:28;98856.16;;;7.79;57.56
49611;BME280;35515;48.766;9.176;2023-02-21T00:33:12;98845.44;;;7.62;58.10
49611;BME280;35515;48.766;9.176;2023-02-21T00:35:56;98857.78;;;7.57;58.37
49611;BME280;35515;48.766;9.176;2023-02-21T00:38:40;98848.69;;;7.81;57.38
49611;BME280;35515;48.766;9.176;2023-02-21T00:41:25;98847.66;;;7.59;58.01
49611;BME280;35515;48.766;9.176;2023-02-21T00:44:09;98842.28;;;7.59;58.40
49611;BME280;35515;48.766;9.176;2023-02-21T00:46:53;98842.22;;;7.67;57.99
49611;BME280;35515;48.766;9.176;2023-02-21T00:49:36;98840.31;;;7.44;58.65
49611;BME280;35515;48.766;9.176;2023-02-21T00:52:20;98840.47;;;7.74;57.77
49611;BME280;35515;48.766;9.176;2023-02-21T00:55:05;98837.31;;;7.70;57.99
49611;BME280;35515;48.766;9.176;2023-02-21T00:57:50;98842.34;;;7.42;58.88
49611;BME280;35515;48.766;9.176;2023-02-21T01:00:34;98831.88;;;7.47;58.66
49611;BME280;35515;48.766;9.176;2023-02-21T01:03:18;98838.34;;;7.38;58.65
49611;BME280;35515;48.766;9.176;2023-02-21T01:06:02;98832.81;;;7.31;58.87
49611;BME280;35515;48.766;9.176;2023-02-21T01:08:46;98832.09;;;7.38;58.61
49611;BME280;35515;48.766;9.176;2023-02-21T01:11:30;98829.59;;;6.96;60.30
49611;BME280;35515;48.766;9.176;2023-02-21T01:14:15;98828.75;;;6.88;60.39
49611;BME280;35515;48.766;9.176;2023-02-21T01:16:59;98827.50;;;7.15;60.00
49611;BME280;35515;48.766;9.176;2023-02-21T01:19:43;98824.88;;;6.90;60.54
49611;BME280;35515;48.766;9.176;2023-02-21T01:22:27;98828.66;;;6.73;61.24
49611;BME280;35515;48.766;9.176;2023-02-21T01:25:12;98825.69;;;7.07;60.61
49611;BME280;35515;48.766;9.176;2023-02-21T01:27:56;98823.31;;;7.12;60.41
49611;BME280;35515;48.766;9.176;2023-02-21T01:30:41;98825.59;;;7.24;59.68
49611;BME280;35515;48.766;9.176;2023-02-21T01:33:26;98823.97;;;7.06;60.35
49611;BME280;35515;48.766;9.176;2023-02-21T01:36:10;98817.63;;;6.99;60.77
49611;BME280;35515;48.766;9.176;2023-02-21T01:38:54;98826.03;;;7.04;60.66
49611;BME280;35515;48.766;9.176;2023-02-21T01:41:38;98830.75;;;7.02;60.82
49611;BME280;35515;48.766;9.176;2023-02-21T01:44:31;98822.38;;;6.89;60.92
49611;BME280;35515;48.766;9.176;2023-02-21T01:47:17;98820.53;;;6.81;61.25
49611;BME280;35515;48.766;9.176;2023-02-21T01:50:01;98818.00;;;6.96;61.06
49611;BME280;35515;48.766;9.176;2023-02-21T01:52:46;98804.47;;;7.04;60.99
49611;BME280;35515;48.766;9.176;2023-02-21T01:55:31;98803.97;;;7.00;61.10
49611;BME280;35515;48.766;9.176;2023-02-21T01:58:15;98807.91;;;6.90;61.91
49611;BME280;35515;48.766;9.176;2023-02-21T02:00:59;98799.75;;;7.06;60.91
49611;BME280;35515;48.766;9.176;2023-02-21T02:03:44;98801.53;;;7.22;60.35
49611;BME280;35515;48.766;9.176;2023-02-21T02:06:28;98805.09;;;7.14;60.74
49611;BME280;35515;48.766;9.176;2023-02-21T02:09:14;98794.94;;;7.25;60.58
49611;BME280;35515;48.766;9.176;2023-02-21T02:12:07;98793.47;;;7.14;60.68
49611;BME280;35515;48.766;9.176;2023-02-21T02:17:39;98796.56;;;7.34;60.20
49611;BME280;35515;48.766;9.176;2023-02-21T02:20:15;98794.75;;;7.26;60.34
49611;BME280;35515;48.766;9.176;2023-02-21T02:23:02;98795.53;;;7.03;60.94
49611;BME280;35515;48.766;9.176;2023-02-21T02:25:38;98796.22;;;7.06;61.13
49611;BME280;35515;48.766;9.176;2023-02-21T02:31:11;98791.38;;;7.32;60.19
49611;BME280;35515;48.766;9.176;2023-02-21T02:36:29;98781.72;;;7.38;59.91
49611;BME280;35515;48.766;9.176;2023-02-21T02:39:01;98782.78;;;7.29;60.07
49611;BME280;35515;48.766;9.176;2023-02-21T02:41:32;98774.69;;;7.37;59.70
49611;BME280;35515;48.766;9.176;2023-02-21T02:44:08;98781.41;;;7.33;59.93
49611;BME280;35515;48.766;9.176;2023-02-21T02:46:38;98778.22;;;6.98;61.32
49611;BME280;35515;48.766;9.176;2023-02-21T02:49:07;98771.91;;;6.82;61.80
49611;BME280;35515;48.766;9.176;2023-02-21T02:51:36;98767.69;;;6.88;61.38
49611;BME280;35515;48.766;9.176;2023-02-21T02:54:03;98770.88;;;6.83;61.65
49611;BME280;35515;48.766;9.176;2023-02-21T02:56:29;98771.19;;;6.89;61.51
49611;BME280;35515;48.766;9.176;2023-02-21T02:58:58;98763.47;;;6.85;61.71
49611;BME280;35515;48.766;9.176;2023-02-21T03:01:33;98767.03;;;6.78;61.83
49611;BME280;35515;48.766;9.176;2023-02-21T03:04:06;98772.19;;;6.88;61.58
49611;BME280;35515;48.766;9.176;2023-02-21T03:06:38;98776.66;;;6.72;62.28
49611;BME280;35515;48.766;9.176;2023-02-21T03:09:12;98776.94;;;6.85;61.79
49611;BME280;35515;48.766;9.176;2023-02-21T03:11:42;98777.66;;;6.71;62.27
49611;BME280;35515;48.766;9.176;2023-02-21T03:14:12;98765.91;;;6.64;62.57
49611;BME280;35515;48.766;9.176;2023-02-21T03:16:40;98772.44;;;6.69;62.63
49611;BME280;35515;48.766;9.176;2023-02-21T03:19:09;98777.38;;;6.58;62.41
49611;BME280;35515;48.766;9.176;2023-02-21T03:21:39;98777.41;;;6.41;63.38
49611;BME280;35515;48.766;9.176;2023-02-21T03:24:06;98772.50;;;6.45;63.40
49611;BME280;35515;48.766;9.176;2023-02-21T03:26:33;98772.03;;;6.33;63.45
49611;BME280;35515;48.766;9.176;2023-02-21T03:29:01;98777.09;;;6.11;64.32
49611;BME280;35515;48.766;9.176;2023-02-21T03:31:28;98773.56;;;6.19;64.03
49611;BME280;35515;48.766;9.176;2023-02-21T03:33:56;98772.91;;;6.00;64.96
49611;BME280;35515;48.766;9.176;2023-02-21T03:36:23;98768.69;;;6.23;63.79
49611;BME280;35515;48.766;9.176;2023-02-21T03:38:50;98771.75;;;6.03;64.68
49611;BME280;35515;48.766;9.176;2023-02-21T03:41:17;98774.91;;;6.23;64.25
49611;BME280;35515;48.766;9.176;2023-02-21T03:43:43;98773.06;;;6.15;64.08
49611;BME280;35515;48.766;9.176;2023-02-21T03:46:09;98777.47;;;6.08;64.25
49611;BME280;35515;48.766;9.176;2023-02-21T03:48:36;98771.56;;;6.05;64.60
49611;BME280;35515;48.766;9.176;2023-02-21T03:51:02;98767.47;;;6.42;63.26
49611;BME280;35515;48.766;9.176;2023-02-21T03:53:29;98778.31;;;6.00;64.39
49611;BME280;35515;48.766;9.176;2023-02-21T03:55:56;98779.09;;;5.84;65.20
49611;BME280;35515;48.766;9.176;2023-02-21T03:58:23;98769.22;;;5.93;64.99
49611;BME280;35515;48.766;9.176;2023-02-21T04:00:49;98775.41;;;5.94;65.23
49611;BME280;35515;48.766;9.176;2023-02-21T04:03:17;98774.06;;;5.65;66.32
49611;BME280;35515;48.766;9.176;2023-02-21T04:05:44;98772.34;;;5.56;66.79
49611;BME280;35515;48.766;9.176;2023-02-21T04:08:11;98784.16;;;5.96;65.40
49611;BME280;35515;48.766;9.176;2023-02-21T04:10:37;98778.41;;;5.82;66.24
49611;BME280;35515;48.766;9.176;2023-02-21T04:13:05;98780.47;;;5.80;66.23
49611;BME280;35515;48.766;9.176;2023-02-21T04:15:31;98778.47;;;5.99;65.56
49611;BME280;35515;48.766;9.176;2023-02-21T04:17:58;98768.03;;;5.96;65.50
49611;BME280;35515;48.766;9.176;2023-02-21T04:20:24;98777.63;;;6.15;64.56
49611;BME280;35515;48.766;9.176;2023-02-21T04:22:50;98774.94;;;6.07;64.55
49611;BME280;35515;48.766;9.176;2023-02-21T04:25:17;98774.06;;;5.81;65.42
49611;BME280;35515;48.766;9.176;2023-02-21T04:27:43;98773.06;;;5.66;66.03
49611;BME280;35515;48.766;9.176;2023-02-21T04:30:11;98772.38;;;5.97;65.40
49611;BME280;35515;48.766;9.176;2023-02-21T04:32:38;98766.19;;;5.88;65.80
49611;BME280;35515;48.766;9.176;2023-02-21T04:35:04;98780.41;;;5.56;66.73
49611;BME280;35515;48.766;9.176;2023-02-21T04:37:31;98774.72;;;5.50;67.16
49611;BME280;35515;48.766;9.176;2023-02-21T04:39:57;98781.06;;;5.33;67.89
49611;BME280;35515;48.766;9.176;2023-02-21T04:42:23;98783.91;;;5.31;68.12
49611;BME280;35515;48.766;9.176;2023-02-21T04:44:50;98790.28;;;5.30;67.95
49611;BME280;35515;48.766;9.176;2023-02-21T04:47:17;98791.16;;;5.47;67.26
49611;BME280;35515;48.766;9.176;2023-02-21T04:49:44;98777.03;;;5.29;68.04
49611;BME280;35515;48.766;9.176;2023-02-21T04:52:15;98785.75;;;5.31;67.99
49611;BME280;35515;48.766;9.176;2023-02-21T04:54:44;98783.63;;;5.43;67.75
49611;BME280;35515;48.766;9.176;2023-02-21T04:57:10;98789.78;;;5.27;68.04
49611;BME280;35515;48.766;9.176;2023-02-21T04:59:36;98778.00;;;5.19;68.22
49611;BME280;35515;48.766;9.176;2023-02-21T05:02:03;98775.03;;;5.31;68.42
49611;BME280;35515;48.766;9.176;2023-02-21T05:04:31;98778.41;;;5.49;67.51
49611;BME280;35515;48.766;9.176;2023-02-21T05:06:58;98781.44;;;5.88;66.03
49611;BME280;35515;48.766;9.176;2023-02-21T05:09:24;98776.75;;;5.65;66.39
49611;BME280;35515;48.766;9.176;2023-02-21T05:11:51;98767.97;;;5.30;67.69
49611;BME280;35515;48.766;9.176;2023-02-21T05:14:17;98766.63;;;5.26;67.76
49611;BME280;35515;48.766;9.176;2023-02-21T05:16:43;98761.53;;;5.14;68.50
49611;BME280;35515;48.766;9.176;2023-02-21T05:19:10;98767.13;;;5.29;68.20
49611;BME280;35515;48.766;9.176;2023-02-21T05:21:37;98767.25;;;5.19;68.45
49611;BME280;35515;48.766;9.176;2023-02-21T05:24:04;98758.72;;;5.16;68.25
49611;BME280;35515;48.766;9.176;2023-02-21T05:26:32;98760.50;;;4.99;68.78
49611;BME280;35515;48.766;9.176;2023-02-21T05:28:59;98762.28;;;4.90;69.07
49611;BME280;35515;48.766;9.176;2023-02-21T05:31:26;98762.31;;;4.98;69.07
49611;BME280;35515;48.766;9.176;2023-02-21T05:33:53;98764.88;;;5.08;69.31
49611;BME280;35515;48.766;9.176;2023-02-21T05:36:19;98758.97;;;4.96;69.79
49611;BME280;35515;48.766;9.176;2023-02-21T05:38:51;98765.72;;;5.09;69.17
49611;BME280;35515;48.766;9.176;2023-02-21T05:41:17;98758.38;;;5.19;68.45
49611;BME280;35515;48.766;9.176;2023-02-21T05:43:44;98763.84;;;5.01;69.24
49611;BME280;35515;48.766;9.176;2023-02-21T05:46:17;98768.63;;;4.81;69.96
49611;BME280;35515;48.766;9.176;2023-02-21T05:48:44;98770.13;;;4.75;70.43
49611;BME280;35515;48.766;9.176;2023-02-21T05:51:10;98764.44;;;4.78;70.64
49611;BME280;35515;48.766;9.176;2023-02-21T05:53:37;98773.91;;;4.91;69.95
49611;BME280;35515;48.766;9.176;2023-02-21T05:56:05;98774.78;;;4.65;70.86
49611;BME280;35515;48.766;9.176;2023-02-21T05:58:31;98779.63;;;4.61;71.60
49611;BME280;35515;48.766;9.176;2023-02-21T06:00:57;98775.56;;;4.92;70.00
49611;BME280;35515;48.766;9.176;2023-02-21T06:03:24;98777.41;;;4.91;69.94
49611;BME280;35515;48.766;9.176;2023-02-21T06:05:50;98772.00;;;4.83;70.48
49611;BME280;35515;48.766;9.176;2023-02-21T06:08:17;98757.84;;;5.15;69.15
49611;BME280;35515;48.766;9.176;2023-02-21T06:10:43;98765.88;;;4.99;69.80
49611;BME280;35515;48.766;9.176;2023-02-21T06:13:11;98760.97;;;4.94;70.64
49611;BME280;35515;48.766;9.176;2023-02-21T06:15:37;98755.50;;;5.21;69.49
49611;BME280;35515;48.766;9.176;2023-02-21T06:18:03;98758.25;;;4.86;70.67
49611;BME280;35515;48.766;9.176;2023-02-21T06:20:30;98769.34;;;4.83;71.16
49611;BME280;35515;48.766;9.176;2023-02-21T06:22:56;98754.22;;;4.82;70.97
49611;BME280;35515;48.766;9.176;2023-02-21T06:25:23;98750.72;;;4.90;70.95
49611;BME280;35515;48.766;9.176;2023-02-21T06:27:49;98746.06;;;5.00;70.74
49611;BME280;35515;48.766;9.176;2023-02-21T06:30:17;98738.75;;;5.18;70.45
49611;BME280;35515;48.766;9.176;2023-02-21T06:32:43;98738.03;;;5.08;70.91
49611;BME280;35515;48.766;9.176;2023-02-21T06:35:09;98752.19;;;5.27;70.65
49611;BME280;35515;48.766;9.176;2023-02-21T06:37:36;98754.69;;;5.20;70.80
49611;BME280;35515;48.766;9.176;2023-02-21T06:40:02;98759.44;;;5.51;69.02
49611;BME280;35515;48.766;9.176;2023-02-21T06:42:29;98757.19;;;5.13;69.46
49611;BME280;35515;48.766;9.176;2023-02-21T06:44:56;98767.56;;;5.00;70.25
49611;BME280;35515;48.766;9.176;2023-02-21T06:47:24;98767.56;;;5.00;70.73
49611;BME280;35515;48.766;9.176;2023-02-21T06:49:50;98773.78;;;5.17;70.11
49611;BME280;35515;48.766;9.176;2023-02-21T06:52:16;98776.84;;;5.30;69.60
49611;BME280;35515;48.766;9.176;2023-02-21T06:54:43;98779.03;;;5.18;70.07
49611;BME280;35515;48.766;9.176;2023-02-21T06:57:10;98776.66;;;5.24;70.16
49611;BME280;35515;48.766;9.176;2023-02-21T06:59:36;98772.78;;;5.10;70.14
49611;BME280;35515;48.766;9.176;2023-02-21T07:02:02;98779.94;;;5.01;70.58
49611;BME280;35515;48.766;9.176;2023-02-21T07:04:30;98778.59;;;4.97;70.98
49611;BME280;35515;48.766;9.176;2023-02-21T07:06:56;98782.34;;;5.04;70.60
49611;BME280;35515;48.766;9.176;2023-02-21T07:09:23;98782.72;;;5.26;70.77
49611;BME280;35515;48.766;9.176;2023-02-21T07:11:49;98782.81;;;5.67;70.43
49611;BME280;35515;48.766;9.176;2023-02-21T07:14:15;98777.09;;;5.78;69.66
49611;BME280;35515;48.766;9.176;2023-02-21T07:16:42;98782.78;;;5.92;70.34
49611;BME280;35515;48.766;9.176;2023-02-21T07:19:08;98779.06;;;5.60;69.27
49611;BME280;35515;48.766;9.176;2023-02-21T07:21:41;98774.53;;;5.44;69.55
49611;BME280;35515;48.766;9.176;2023-02-21T07:24:07;98779.25;;;5.42;69.50
49611;BME280;35515;48.766;9.176;2023-02-21T07:26:33;98772.53;;;5.46;69.59
49611;BME280;35515;48.766;9.176;2023-02-21T07:29:01;98774.84;;;5.24;70.64
49611;BME280;35515;48.766;9.176;2023-02-21T07:31:27;98778.16;;;5.18;70.81
49611;BME280;35515;48.766;9.176;2023-02-21T07:33:54;98777.97;;;5.11;71.14
49611;BME280;35515;48.766;9.176;2023-02-21T07:36:20;98775.47;;;5.10;71.42
49611;BME280;35515;48.766;9.176;2023-02-21T07:38:49;98773.41;;;5.03;71.70
49611;BME280;35515;48.766;9.176;2023-02-21T07:41:15;98772.41;;;5.05;71.97
49611;BME280;35515;48.766;9.176;2023-02-21T07:43:41;98770.25;;;5.00;72.11
49611;BME280;35515;48.766;9.176;2023-02-21T07:46:08;98778.97;;;5.02;72.15
49611;BME280;35515;48.766;9.176;2023-02-21T07:48:35;98777.16;;;5.19;71.40
49611;BME280;35515;48.766;9.176;2023-02-21T07:51:01;98764.28;;;5.31;71.56
49611;BME280;35515;48.766;9.176;2023-02-21T07:53:27;98764.28;;;5.39;70.77
49611;BME280;35515;48.766;9.176;2023-02-21T07:55:55;98772.69;;;5.44;71.10
49611;BME280;35515;48.766;9.176;2023-02-21T07:58:22;98766.66;;;5.50;71.06
49611;BME280;35515;48.766;9.176;2023-02-21T08:00:48;98775.09;;;5.64;70.98
49611;BME280;35515;48.766;9.176;2023-02-21T08:03:14;98775.91;;;5.56;71.34
49611;BME280;35515;48.766;9.176;2023-02-21T08:05:41;98771.53;;;5.55;71.38
49611;BME280;35515;48.766;9.176;2023-02-21T08:08:07;98769.50;;;5.49;72.33
49611;BME280;35515;48.766;9.176;2023-02-21T08:10:34;98768.84;;;5.72;71.22
49611;BME280;35515;48.766;9.176;2023-02-21T08:13:02;98773.22;;;5.97;69.69
49611;BME280;35515;48.766;9.176;2023-02-21T08:15:28;98776.13;;;6.04;69.25
49611;BME280;35515;48.766;9.176;2023-02-21T08:17:55;98783.19;;;6.05;68.98
49611;BME280;35515;48.766;9.176;2023-02-21T08:20:21;98775.25;;;6.03;68.96
49611;BME280;35515;48.766;9.176;2023-02-21T08:22:48;98772.91;;;6.09;68.75
49611;BME280;35515;48.766;9.176;2023-02-21T08:25:14;98782.84;;;6.08;69.18
49611;BME280;35515;48.766;9.176;2023-02-21T08:27:41;98777.78;;;6.22;69.04
49611;BME280;35515;48.766;9.176;2023-02-21T08:30:10;98779.09;;;6.34;68.55
49611;BME280;35515;48.766;9.176;2023-02-21T08:32:38;98790.88;;;6.33;68.70
49611;BME280;35515;48.766;9.176;2023-02-21T08:35:06;98790.84;;;6.49;68.23
49611;BME280;35515;48.766;9.176;2023-02-21T08:37:32;98780.56;;;6.53;68.11
49611;BME280;35515;48.766;9.176;2023-02-21T08:40:00;98774.84;;;6.56;67.81
49611;BME280;35515;48.766;9.176;2023-02-21T08:42:28;98787.31;;;6.57;69.14
49611;BME280;35515;48.766;9.176;2023-02-21T08:44:54;98786.28;;;6.66;68.04
49611;BME280;35515;48.766;9.176;2023-02-21T08:47:22;98784.44;;;6.59;68.19
49611;BME280;35515;48.766;9.176;2023-02-21T08:49:49;98782.56;;;6.59;67.95
49611;BME280;35515;48.766;9.176;2023-02-21T08:52:16;98777.69;;;6.63;67.92
49611;BME280;35515;48.766;9.176;2023-02-21T08:54:42;98782.38;;;6.69;67.47
49611;BME280;35515;48.766;9.176;2023-02-21T08:57:09;98776.31;;;6.75;67.42
49611;BME280;35515;48.766;9.176;2023-02-21T08:59:38;98778.91;;;6.92;67.02
49611;BME280;35515;48.766;9.176;2023-02-21T09:02:08;98780.81;;;6.83;66.86
49611;BME280;35515;48.766;9.176;2023-02-21T09:04:38;98781.19;;;6.80;67.30
49611;BME280;35515;48.766;9.176;2023-02-21T09:07:04;98778.78;;;6.85;67.01
49611;BME280;35515;48.766;9.176;2023-02-21T09:09:31;98780.47;;;6.86;66.50
49611;BME280;35515;48.766;9.176;2023-02-21T09:11:57;98776.53;;;6.97;66.51
49611;BME280;35515;48.766;9.176;2023-02-21T09:14:23;98782.56;;;7.07;66.10
49611;BME280;35515;48.766;9.176;2023-02-21T09:16:50;98776.47;;;7.13;65.88
49611;BME280;35515;48.766;9.176;2023-02-21T09:19:16;98776.63;;;7.20;65.81
49611;BME280;35515;48.766;9.176;2023-02-21T09:21:45;98783.47;;;7.31;65.62
49611;BME280;35515;48.766;9.176;2023-02-21T09:24:12;98771.53;;;7.25;65.78
49611;BME280;35515;48.766;9.176;2023-02-21T09:26:38;98778.31;;;7.21;65.54
49611;BME280;35515;48.766;9.176;2023-02-21T09:29:04;98771.69;;;7.24;65.05
49611;BME280;35515;48.766;9.176;2023-02-21T09:31:31;98773.44;;;7.40;65.14
49611;BME280;35515;48.766;9.176;2023-02-21T09:33:57;98776.66;;;7.43;64.39
49611;BME280;35515;48.766;9.176;2023-02-21T09:36:23;98774.25;;;7.48;64.32
49611;BME280;35515;48.766;9.176;2023-02-21T09:38:51;98770.38;;;7.51;64.21
49611;BME280;35515;48.766;9.176;2023-02-21T09:41:18;98768.81;;;7.57;64.25
49611;BME280;35515;48.766;9.176;2023-02-21T09:43:45;98764.53;;;7.62;64.00
49611;BME280;35515;48.766;9.176;2023-02-21T09:46:13;98759.94;;;7.71;64.26
49611;BME280;35515;48.766;9.176;2023-02-21T09:48:41;98757.34;;;7.78;63.57
49611;BME280;35515;48.766;9.176;2023-02-21T09:51:08;98754.47;;;7.79;63.78
49611;BME280;35515;48.766;9.176;2023-02-21T09:53:37;98760.84;;;7.86;63.58
49611;BME280;35515;48.766;9.176;2023-02-21T09:56:06;98749.97;;;7.95;63.32
49611;BME280;35515;48.766;9.176;2023-02-21T09:58:33;98752.59;;;8.03;63.17
49611;BME280;35515;48.766;9.176;2023-02-21T10:01:02;98747.13;;;8.11;62.99
49611;BME280;35515;48.766;9.176;2023-02-21T10:03:35;98758.50;;;8.22;63.10
49611;BME280;35515;48.766;9.176;2023-02-21T10:06:07;98740.53;;;8.29;62.26
49611;BME280;35515;48.766;9.176;2023-02-21T10:08:38;98745.50;;;8.40;62.34
49611;BME280;35515;48.766;9.176;2023-02-21T10:11:15;98744.75;;;8.46;62.05
49611;BME280;35515;48.766;9.176;2023-02-21T10:13:45;98743.66;;;8.56;61.55
49611;BME280;35515;48.766;9.176;2023-02-21T10:16:13;98739.09;;;8.56;61.69
49611;BME280;35515;48.766;9.176;2023-02-21T10:18:43;98737.22;;;8.57;61.87
49611;BME280;35515;48.766;9.176;2023-02-21T10:21:13;98738.19;;;8.64;61.60
49611;BME280;35515;48.766;9.176;2023-02-21T10:23:42;98747.19;;;8.71;61.42
49611;BME280;35515;48.766;9.176;2023-02-21T10:26:13;98737.31;;;8.78;61.72
49611;BME280;35515;48.766;9.176;2023-02-21T10:28:41;98731.63;;;8.88;61.30
49611;BME280;35515;48.766;9.176;2023-02-21T10:31:08;98733.66;;;9.01;60.57
49611;BME280;35515;48.766;9.176;2023-02-21T10:33:36;98731.50;;;9.11;60.39
49611;BME280;35515;48.766;9.176;2023-02-21T10:36:08;98736.91;;;9.11;60.78
49611;BME280;35515;48.766;9.176;2023-02-21T10:38:34;98730.22;;;9.29;59.99
49611;BME280;35515;48.766;9.176;2023-02-21T10:41:04;98721.88;;;9.45;59.79
49611;BME280;35515;48.766;9.176;2023-02-21T10:43:33;98729.13;;;9.60;59.23
49611;BME280;35515;48.766;9.176;2023-02-21T10:46:02;98724.97;;;9.64;59.31
49611;BME280;35515;48.766;9.176;2023-02-21T10:48:31;98728.91;;;9.83;58.38
49611;BME280;35515;48.766;9.176;2023-02-21T10:51:06;98725.22;;;9.91;58.21
49611;BME280;35515;48.766;9.176;2023-02-21T10:53:34;98725.59;;;9.87;58.36
49611;BME280;35515;48.766;9.176;2023-02-21T10:56:21;98714.19;;;9.92;57.82
49611;BME280;35515;48.766;9.176;2023-02-21T10:58:50;98712.00;;;10.02;57.84
49611;BME280;35515;48.766;9.176;2023-02-21T11:01:18;98710.81;;;10.12;57.35
49611;BME280;35515;48.766;9.176;2023-02-21T11:03:46;98701.06;;;10.17;57.34
49611;BME280;35515;48.766;9.176;2023-02-21T11:06:21;98699.47;;;10.30;56.66
49611;BME280;35515;48.766;9.176;2023-02-21T11:08:48;98686.84;;;10.37;56.89
49611;BME280;35515;48.766;9.176;2023-02-21T11:11:15;98696.00;;;10.36;56.85
49611;BME280;35515;48.766;9.176;2023-02-21T11:13:41;98693.53;;;10.41;56.78
49611;BME280;35515;48.766;9.176;2023-02-21T11:16:10;98685.72;;;10.60;56.68
49611;BME280;35515;48.766;9.176;2023-02-21T11:18:37;98695.53;;;10.67;56.48
49611;BME280;35515;48.766;9.176;2023-02-21T11:21:09;98690.16;;;10.74;56.50
49611;BME280;35515;48.766;9.176;2023-02-21T11:23:36;98685.19;;;10.84;56.40
49611;BME280;35515;48.766;9.176;2023-02-21T11:26:04;98667.94;;;10.92;56.17
49611;BME280;35515;48.766;9.176;2023-02-21T11:28:35;98676.53;;;11.02;55.86
49611;BME280;35515;48.766;9.176;2023-02-21T11:31:04;98670.88;;;10.97;56.54
49611;BME280;35515;48.766;9.176;2023-02-21T11:33:32;98666.09;;;11.06;56.12
49611;BME280;35515;48.766;9.176;2023-02-21T11:36:08;98661.28;;;11.01;56.38
49611;BME280;35515;48.766;9.176;2023-02-21T11:38:36;98659.19;;;11.03;56.57
49611;BME280;35515;48.766;9.176;2023-02-21T11:41:14;98647.31;;;11.11;55.98
49611;BME280;35515;48.766;9.176;2023-02-21T11:43:44;98646.28;;;11.12;56.38
49611;BME280;35515;48.766;9.176;2023-02-21T11:46:12;98642.38;;;11.28;55.45
49611;BME280;35515;48.766;9.176;2023-02-21T11:48:44;98640.09;;;11.32;55.08
49611;BME280;35515;48.766;9.176;2023-02-21T11:51:16;98636.13;;;11.41;54.61
49611;BME280;35515;48.766;9.176;2023-02-21T11:53:43;98634.25;;;11.55;54.44
49611;BME280;35515;48.766;9.176;2023-02-21T11:56:18;98622.97;;;11.58;54.37
49611;BME280;35515;48.766;9.176;2023-02-21T11:58:48;98620.91;;;11.60;54.26
49611;BME280;35515;48.766;9.176;2023-02-21T12:01:18;98615.03;;;11.63;53.95
49611;BME280;35515;48.766;9.176;2023-02-21T12:03:54;98606.28;;;11.68;53.87
49611;BME280;35515;48.766;9.176;2023-02-21T12:06:26;98604.81;;;11.72;53.54
49611;BME280;35515;48.766;9.176;2023-02-21T12:08:55;98600.22;;;11.73;53.45
49611;BME280;35515;48.766;9.176;2023-02-21T12:11:29;98590.44;;;11.71;53.33
49611;BME280;35515;48.766;9.176;2023-02-21T12:14:01;98581.66;;;11.76;53.13
49611;BME280;35515;48.766;9.176;2023-02-21T12:16:35;98577.88;;;11.77;53.19
49611;BME280;35515;48.766;9.176;2023-02-21T12:19:14;98575.78;;;11.86;52.57
49611;BME280;35515;48.766;9.176;2023-02-21T12:21:51;98569.53;;;11.99;52.14
49611;BME280;35515;48.766;9.176;2023-02-21T12:24:26;98568.69;;;12.05;51.71
49611;BME280;35515;48.766;9.176;2023-02-21T12:26:59;98562.41;;;11.98;51.90
49611;BME280;35515;48.766;9.176;2023-02-21T12:29:31;98561.78;;;12.02;51.82
49611;BME280;35515;48.766;9.176;2023-02-21T12:32:07;98552.19;;;12.00;51.66
49611;BME280;35515;48.766;9.176;2023-02-21T12:34:51;98552.78;;;12.02;51.76
49611;BME280;35515;48.766;9.176;2023-02-21T12:37:23;98547.16;;;12.10;51.66
49611;BME280;35515;48.766;9.176;2023-02-21T12:39:57;98547.31;;;12.15;51.33
49611;BME280;35515;48.766;9.176;2023-02-21T12:42:31;98540.78;;;12.30;50.90
49611;BME280;35515;48.766;9.176;2023-02-21T12:45:06;98539.56;;;12.26;51.13
49611;BME280;35515;48.766;9.176;2023-02-21T12:47:39;98530.56;;;12.32;50.77
49611;BME280;35515;48.766;9.176;2023-02-21T12:50:12;98525.56;;;12.22;51.08
49611;BME280;35515;48.766;9.176;2023-02-21T12:52:46;98528.81;;;12.44;50.44
49611;BME280;35515;48.766;9.176;2023-02-21T12:55:15;98513.16;;;12.46;50.15
49611;BME280;35515;48.766;9.176;2023-02-21T12:57:46;98501.88;;;12.43;50.17
49611;BME280;35515;48.766;9.176;2023-02-21T13:00:16;98505.78;;;12.53;49.92
49611;BME280;35515;48.766;9.176;2023-02-21T13:02:44;98493.25;;;12.52;49.84
49611;BME280;35515;48.766;9.176;2023-02-21T13:05:17;98487.44;;;12.49;50.12
49611;BME280;35515;48.766;9.176;2023-02-21T13:07:45;98485.53;;;12.49;49.91
49611;BME280;35515;48.766;9.176;2023-02-21T13:10:17;98478.53;;;12.67;49.37
49611;BME280;35515;48.766;9.176;2023-02-21T13:12:45;98476.38;;;12.76;49.12
49611;BME280;35515;48.766;9.176;2023-02-21T13:15:16;98465.47;;;12.82;48.88
49611;BME280;35515;48.766;9.176;2023-02-21T13:17:43;98469.69;;;12.78;49.18
49611;BME280;35515;48.766;9.176;2023-02-21T13:20:15;98455.00;;;12.79;49.30
49611;BME280;35515;48.766;9.176;2023-02-21T13:25:52;98450.75;;;12.90;48.88
49611;BME280;35515;48.766;9.176;2023-02-21T13:28:24;98442.81;;;12.88;48.83
49611;BME280;35515;48.766;9.176;2023-02-21T13:30:56;98444.81;;;13.00;48.38
49611;BME280;35515;48.766;9.176;2023-02-21T13:33:25;98441.47;;;12.98;48.52
49611;BME280;35515;48.766;9.176;2023-02-21T13:35:52;98436.03;;;12.98;48.21
49611;BME280;35515;48.766;9.176;2023-02-21T13:38:21;98436.50;;;12.95;48.15
49611;BME280;35515;48.766;9.176;2023-02-21T13:40:48;98433.94;;;13.00;47.84